createdAt,value
2022-09-12T00:02:07.293Z,14.30
2022-09-12T00:04:35.413Z,14.20
2022-09-12T00:07:04.550Z,14.20
2022-09-12T00:09:33.202Z,14.20
2022-09-12T00:12:04.223Z,14.20
2022-09-12T00:14:36.373Z,14.10
2022-09-12T00:17:07.879Z,14.20
2022-09-12T00:19:36.112Z,14.20
2022-09-12T00:22:07.689Z,14.20
2022-09-12T00:24:37.766Z,14.20
2022-09-12T00:27:06.878Z,14.20
2022-09-12T00:29:35.393Z,14.20
2022-09-12T00:32:03.557Z,14.10
2022-09-12T00:34:33.721Z,14.10
2022-09-12T00:37:04.659Z,14.10
2022-09-12T00:39:33.131Z,14.10
2022-09-12T00:42:01.490Z,14.10
2022-09-12T00:44:39.050Z,14.20
2022-09-12T00:47:17.682Z,14.20
2022-09-12T00:49:58.428Z,14.10
2022-09-12T00:52:46.410Z,14.10
2022-09-12T00:55:24.827Z,14.10
2022-09-12T00:58:18.683Z,14.00
2022-09-12T01:00:48.912Z,14.10
2022-09-12T01:03:19.620Z,14.10
2022-09-12T01:06:15.666Z,14.10
2022-09-12T01:08:48.478Z,14.20
2022-09-12T01:11:19.633Z,14.20
2022-09-12T01:13:48.058Z,14.30
2022-09-12T01:16:19.200Z,14.20
2022-09-12T01:19:09.268Z,14.20
2022-09-12T01:22:15.155Z,14.20
2022-09-12T01:24:56.938Z,14.20
2022-09-12T01:27:57.406Z,14.10
2022-09-12T01:30:45.962Z,14.10
2022-09-12T01:33:37.061Z,14.10
2022-09-12T01:36:39.563Z,14.10
2022-09-12T01:39:30.589Z,14.10
2022-09-12T01:42:26.696Z,14.00
2022-09-12T01:45:25.816Z,14.00
2022-09-12T01:48:44.302Z,14.00
2022-09-12T01:52:07.188Z,14.00
2022-09-12T01:55:09.753Z,14.00
2022-09-12T01:57:53.185Z,14.00
2022-09-12T02:00:26.734Z,14.00
2022-09-12T02:03:03.617Z,14.00
2022-09-12T02:05:32.860Z,14.00
2022-09-12T02:08:22.504Z,14.00
2022-09-12T02:11:03.717Z,14.00
2022-09-12T02:13:49.649Z,14.00
2022-09-12T02:16:32.293Z,13.90
2022-09-12T02:19:17.793Z,13.90
2022-09-12T02:21:52.959Z,13.90
2022-09-12T02:24:26.120Z,13.90
2022-09-12T02:27:01.859Z,13.90
2022-09-12T02:29:33.946Z,13.90
2022-09-12T02:32:15.100Z,13.90
2022-09-12T02:35:02.054Z,13.80
2022-09-12T02:37:50.815Z,13.80
2022-09-12T02:40:19.622Z,13.70
2022-09-12T02:42:48.493Z,13.70
2022-09-12T02:45:18.377Z,13.60
2022-09-12T02:48:31.002Z,13.70
2022-09-12T02:51:02.978Z,13.70
2022-09-12T02:53:37.949Z,13.70
2022-09-12T02:56:11.070Z,13.70
2022-09-12T02:58:43.239Z,13.60
2022-09-12T03:01:49.252Z,13.60
2022-09-12T03:04:44.714Z,13.60
2022-09-12T03:07:20.097Z,13.60
2022-09-12T03:10:20.618Z,13.60
2022-09-12T03:13:06.255Z,13.60
2022-09-12T03:16:02.942Z,13.60
2022-09-12T03:19:04.010Z,13.60
2022-09-12T03:22:10.001Z,13.60
2022-09-12T03:25:14.843Z,13.60
2022-09-12T03:28:09.737Z,13.70
2022-09-12T03:30:47.655Z,13.60
2022-09-12T03:33:21.971Z,13.70
2022-09-12T03:35:53.116Z,13.70
2022-09-12T03:41:03.898Z,13.70
2022-09-12T03:43:34.594Z,13.70
2022-09-12T03:46:09.306Z,13.70
2022-09-12T03:48:37.912Z,13.70
2022-09-12T03:51:08.686Z,13.60
2022-09-12T03:53:37.201Z,13.70
2022-09-12T03:56:10.133Z,13.70
2022-09-12T03:58:46.995Z,13.60
2022-09-12T04:01:18.649Z,13.70
2022-09-12T04:03:53.087Z,13.70
2022-09-12T04:06:25.488Z,13.70
2022-09-12T04:11:39.113Z,13.70
2022-09-12T04:14:10.169Z,13.70
2022-09-12T04:16:40.662Z,13.60
2022-09-12T04:19:11.676Z,13.60
2022-09-12T04:21:40.076Z,13.60
2022-09-12T04:24:09.680Z,13.60
2022-09-12T04:26:37.093Z,13.60
2022-09-12T04:29:07.106Z,13.70
2022-09-12T04:31:36.191Z,13.70
2022-09-12T04:34:07.859Z,13.80
2022-09-12T04:36:45.334Z,13.80
2022-09-12T04:39:14.200Z,13.80
2022-09-12T04:41:44.443Z,13.80
2022-09-12T04:44:17.619Z,13.80
2022-09-12T04:46:48.988Z,13.90
2022-09-12T04:49:17.461Z,13.90
2022-09-12T04:51:45.657Z,13.90
2022-09-12T04:54:27.561Z,13.90
2022-09-12T04:56:58.484Z,14.00
2022-09-12T04:59:28.182Z,14.10
2022-09-12T05:01:59.987Z,14.00
2022-09-12T05:04:31.694Z,14.10
2022-09-12T05:07:02.547Z,14.00
2022-09-12T05:09:31.002Z,14.00
2022-09-12T05:12:04.289Z,14.00
2022-09-12T05:14:36.910Z,14.10
2022-09-12T05:17:06.915Z,14.10
2022-09-12T05:19:37.665Z,14.20
2022-09-12T05:22:07.084Z,14.20
2022-09-12T05:24:37.599Z,14.30
2022-09-12T05:27:06.487Z,14.30
2022-09-12T05:29:36.337Z,14.40
2022-09-12T05:32:05.336Z,14.40
2022-09-12T05:34:35.534Z,14.40
2022-09-12T05:39:50.292Z,14.40
2022-09-12T05:45:02.108Z,14.40
2022-09-12T05:47:34.544Z,14.40
2022-09-12T05:50:12.893Z,14.40
2022-09-12T05:52:42.818Z,14.40
2022-09-12T05:55:12.653Z,14.40
2022-09-12T05:57:40.177Z,14.40
2022-09-12T06:02:56.030Z,14.50
2022-09-12T06:05:27.469Z,14.50
2022-09-12T06:07:58.888Z,14.60
2022-09-12T06:13:13.991Z,14.60
2022-09-12T06:15:44.801Z,14.70
2022-09-12T06:18:14.181Z,14.70
2022-09-12T06:20:45.395Z,14.70
2022-09-12T06:23:15.745Z,14.70
2022-09-12T06:25:55.746Z,14.70
2022-09-12T06:28:25.458Z,14.80
2022-09-12T06:31:03.894Z,14.90
2022-09-12T06:33:36.993Z,15.00
2022-09-12T06:36:34.523Z,15.10
2022-09-12T06:39:22.879Z,15.20
2022-09-12T06:42:04.235Z,15.40
2022-09-12T06:44:40.440Z,15.50
2022-09-12T06:47:15.150Z,15.50
2022-09-12T06:49:43.135Z,15.60
2022-09-12T06:52:12.625Z,15.70
2022-09-12T06:57:27.422Z,15.80
2022-09-12T06:59:59.161Z,15.80
2022-09-12T07:02:27.804Z,15.90
2022-09-12T07:05:00.835Z,15.90
2022-09-12T07:07:32.074Z,16.00
2022-09-12T07:10:04.535Z,16.00
2022-09-12T07:12:36.732Z,16.10
2022-09-12T07:15:06.139Z,16.10
2022-09-12T07:17:35.053Z,16.10
2022-09-12T07:20:15.923Z,16.20
2022-09-12T07:25:26.765Z,16.20
2022-09-12T07:27:58.015Z,16.20
2022-09-12T07:30:30.062Z,16.30
2022-09-12T07:32:59.786Z,16.30
2022-09-12T07:35:30.731Z,16.30
2022-09-12T07:38:05.366Z,16.30
2022-09-12T07:40:35.618Z,16.40
2022-09-12T07:43:10.096Z,16.50
2022-09-12T07:45:43.812Z,16.70
2022-09-12T07:48:15.494Z,16.70
2022-09-12T07:50:45.592Z,16.90
2022-09-12T07:53:23.397Z,17.00
2022-09-12T07:55:56.239Z,17.30
2022-09-12T07:58:31.352Z,17.50
2022-09-12T08:01:18.008Z,17.80
2022-09-12T08:03:48.729Z,18.10
2022-09-12T08:06:24.330Z,18.20
2022-09-12T08:08:59.791Z,18.30
2022-09-12T08:11:30.658Z,18.50
2022-09-12T08:14:02.352Z,18.60
2022-09-12T08:16:34.199Z,18.90
2022-09-12T08:21:48.228Z,18.90
2022-09-12T08:24:18.136Z,19.10
2022-09-12T08:26:46.835Z,19.10
2022-09-12T08:29:20.723Z,19.30
2022-09-12T08:31:51.094Z,19.30
2022-09-12T08:34:25.298Z,19.40
2022-09-12T08:36:56.998Z,19.30
2022-09-12T08:39:27.937Z,19.30
2022-09-12T08:45:24.549Z,19.50
2022-09-12T08:47:56.538Z,19.50
2022-09-12T08:50:26.545Z,19.10
2022-09-12T08:53:08.892Z,19.30
2022-09-12T08:55:54.168Z,19.40
2022-09-12T08:58:26.761Z,19.60
2022-09-12T09:01:28.085Z,19.70
2022-09-12T09:04:30.195Z,19.90
2022-09-12T09:07:17.122Z,20.10
2022-09-12T09:10:28.027Z,20.10
2022-09-12T09:13:05.389Z,20.00
2022-09-12T09:16:09.970Z,20.20
2022-09-12T09:18:39.441Z,20.30
2022-09-12T09:21:27.058Z,20.40
2022-09-12T09:24:19.588Z,20.50
2022-09-12T09:27:30.228Z,20.40
2022-09-12T09:30:07.220Z,20.10
2022-09-12T09:32:41.457Z,20.00
2022-09-12T09:35:45.113Z,20.10
2022-09-12T09:38:56.636Z,20.00
2022-09-12T09:42:12.594Z,20.30
2022-09-12T09:44:43.806Z,20.60
2022-09-12T09:47:22.222Z,20.70
2022-09-12T09:49:54.741Z,20.90
2022-09-12T09:52:29.512Z,21.00
2022-09-12T09:55:02.148Z,20.90
2022-09-12T09:57:40.538Z,20.80
2022-09-12T10:00:34.366Z,20.80
2022-09-12T10:03:26.134Z,20.70
2022-09-12T10:06:00.030Z,20.50
2022-09-12T10:08:37.464Z,20.60
2022-09-12T10:11:32.682Z,20.70
2022-09-12T10:14:10.220Z,20.60
2022-09-12T10:17:01.203Z,20.80
2022-09-12T10:19:40.013Z,20.90
2022-09-12T10:22:20.731Z,21.20
2022-09-12T10:24:55.130Z,21.60
2022-09-12T10:27:26.274Z,21.80
2022-09-12T10:30:22.512Z,22.00
2022-09-12T10:32:51.681Z,22.30
2022-09-12T10:35:44.538Z,22.40
2022-09-12T10:38:34.981Z,22.50
2022-09-12T10:41:09.674Z,22.60
2022-09-12T10:43:41.171Z,22.80
2022-09-12T10:46:30.708Z,22.90
2022-09-12T10:49:33.853Z,23.00
2022-09-12T10:52:34.025Z,23.10
2022-09-12T10:55:02.188Z,23.40
2022-09-12T10:58:14.197Z,23.50
2022-09-12T11:00:49.251Z,23.40
2022-09-12T11:03:35.622Z,23.00
2022-09-12T11:06:05.293Z,22.70
2022-09-12T11:08:58.357Z,22.90
2022-09-12T11:11:48.271Z,23.30
2022-09-12T11:15:02.200Z,23.00
2022-09-12T11:18:17.519Z,22.60
2022-09-12T11:21:12.574Z,22.30
2022-09-12T11:24:34.844Z,23.00
2022-09-12T11:27:43.064Z,23.60
2022-09-12T11:30:16.085Z,23.30
2022-09-12T11:33:21.739Z,23.00
2022-09-12T11:35:58.926Z,23.60
2022-09-12T11:39:02.371Z,24.30
2022-09-12T11:41:35.736Z,23.90
2022-09-12T11:44:22.054Z,23.90
2022-09-12T11:46:51.900Z,24.40
2022-09-12T11:49:37.403Z,24.70
2022-09-12T11:52:27.145Z,25.00
2022-09-12T11:55:10.653Z,25.30
2022-09-12T11:57:52.205Z,24.90
2022-09-12T12:00:40.916Z,24.20
2022-09-12T12:03:37.874Z,24.40
2022-09-12T12:06:26.900Z,24.70
2022-09-12T12:08:57.679Z,24.90
2022-09-12T12:11:39.242Z,24.90
2022-09-12T12:14:32.572Z,25.00
2022-09-12T12:17:02.428Z,24.50
2022-09-12T12:19:47.418Z,24.70
2022-09-12T12:22:22.508Z,24.60
2022-09-12T12:25:19.535Z,24.80
2022-09-12T12:28:20.734Z,24.90
2022-09-12T12:30:56.815Z,24.90
2022-09-12T12:33:28.533Z,24.30
2022-09-12T12:36:38.685Z,23.90
2022-09-12T12:39:40.522Z,23.70
2022-09-12T12:42:09.429Z,23.50
2022-09-12T12:44:51.471Z,23.60
2022-09-12T12:47:41.177Z,24.00
2022-09-12T12:50:34.828Z,24.10
2022-09-12T12:53:30.521Z,24.40
2022-09-12T12:56:01.857Z,24.40
2022-09-12T12:58:45.791Z,24.60
2022-09-12T13:01:20.287Z,24.70
2022-09-12T13:04:01.341Z,24.70
2022-09-12T13:06:39.499Z,24.90
2022-09-12T13:09:09.972Z,24.70
2022-09-12T13:11:41.187Z,24.30
2022-09-12T13:14:47.871Z,24.00
2022-09-12T13:17:33.545Z,23.70
2022-09-12T13:20:29.275Z,23.30
2022-09-12T13:23:00.723Z,23.50
2022-09-12T13:25:37.091Z,23.80
2022-09-12T13:28:18.613Z,23.80
2022-09-12T13:31:03.502Z,23.50
2022-09-12T13:33:40.030Z,23.30
2022-09-12T13:36:36.502Z,22.80
2022-09-12T13:39:32.140Z,22.80
2022-09-12T13:42:24.765Z,23.00
2022-09-12T13:45:08.461Z,23.30
2022-09-12T13:47:43.672Z,23.40
2022-09-12T13:50:35.442Z,23.30
2022-09-12T13:53:13.229Z,23.40
2022-09-12T13:55:48.152Z,23.50
2022-09-12T13:58:20.876Z,23.50
2022-09-12T14:01:16.564Z,23.40
2022-09-12T14:04:17.186Z,23.50
2022-09-12T14:06:52.695Z,23.50
2022-09-12T14:09:44.032Z,23.50
2022-09-12T14:12:28.882Z,23.60
2022-09-12T14:15:01.515Z,23.50
2022-09-12T14:17:39.852Z,23.50
2022-09-12T14:20:19.023Z,23.80
2022-09-12T14:22:51.219Z,24.10
2022-09-12T14:25:27.283Z,24.00
2022-09-12T14:27:58.189Z,23.90
2022-09-12T14:30:39.924Z,23.90
2022-09-12T14:33:23.696Z,23.60
2022-09-12T14:36:10.103Z,23.10
2022-09-12T14:38:43.661Z,22.90
2022-09-12T14:41:14.967Z,23.50
2022-09-12T14:43:51.986Z,23.80
2022-09-12T14:46:42.140Z,24.10
2022-09-12T14:49:29.962Z,24.20
2022-09-12T14:52:31.045Z,24.20
2022-09-12T14:55:31.228Z,24.40
2022-09-12T14:58:20.888Z,24.20
2022-09-12T15:01:07.991Z,24.00
2022-09-12T15:03:52.179Z,23.90
2022-09-12T15:06:38.701Z,23.90
2022-09-12T15:09:16.219Z,23.60
2022-09-12T15:17:14.264Z,23.30
2022-09-12T15:19:44.647Z,23.00
2022-09-12T15:27:51.079Z,22.60
2022-09-12T15:30:19.524Z,22.40
2022-09-12T15:32:50.890Z,22.20
2022-09-12T15:35:25.122Z,22.10
2022-09-12T15:37:55.056Z,22.00
2022-09-12T15:40:27.035Z,21.90
2022-09-12T15:42:56.728Z,21.90
2022-09-12T15:45:32.040Z,21.70
2022-09-12T15:48:03.285Z,21.70
2022-09-12T15:50:32.053Z,21.70
2022-09-12T15:53:02.674Z,21.50
2022-09-12T15:55:34.103Z,21.50
2022-09-12T15:58:07.326Z,21.40
2022-09-12T16:00:37.876Z,21.30
2022-09-12T16:03:17.751Z,21.20
2022-09-12T16:05:47.402Z,21.10
2022-09-12T16:11:21.436Z,21.00
2022-09-12T16:13:50.190Z,20.90
2022-09-12T16:16:19.378Z,20.80
2022-09-12T16:18:50.692Z,20.80
2022-09-12T16:21:18.644Z,20.60
2022-09-12T16:23:52.449Z,20.50
2022-09-12T16:26:22.511Z,20.40
2022-09-12T16:29:01.600Z,20.30
2022-09-12T16:31:31.460Z,20.20
2022-09-12T16:34:01.850Z,20.20
2022-09-12T16:36:33.809Z,20.20
2022-09-12T16:39:05.395Z,20.10
2022-09-12T16:41:38.490Z,19.90
2022-09-12T16:44:10.958Z,19.80
2022-09-12T16:46:39.259Z,19.70
2022-09-12T16:51:53.974Z,19.50
2022-09-12T16:54:23.402Z,19.40
2022-09-12T16:56:51.393Z,19.30
2022-09-12T16:59:19.919Z,19.30
2022-09-12T17:01:53.179Z,19.20
2022-09-12T17:04:23.727Z,19.10
2022-09-12T17:06:56.616Z,18.90
2022-09-12T17:09:30.897Z,18.80
2022-09-12T17:12:01.393Z,18.80
2022-09-12T17:14:31.231Z,18.70
2022-09-12T17:17:01.211Z,18.50
2022-09-12T17:19:34.049Z,18.40
2022-09-12T17:22:03.824Z,18.30
2022-09-12T17:24:36.239Z,18.20
2022-09-12T17:27:06.892Z,18.20
2022-09-12T17:29:37.852Z,18.10
2022-09-12T17:32:08.806Z,18.10
2022-09-12T17:34:40.533Z,18.00
2022-09-12T17:37:08.441Z,18.00
2022-09-12T17:39:36.943Z,17.90
2022-09-12T17:42:05.585Z,17.80
2022-09-12T17:44:38.324Z,17.80
2022-09-12T17:47:09.815Z,17.70
2022-09-12T17:49:41.035Z,17.60
2022-09-12T17:52:10.295Z,17.50
2022-09-12T17:54:40.631Z,17.50
2022-09-12T17:57:10.999Z,17.40
2022-09-12T17:59:40.845Z,17.40
2022-09-12T18:02:17.488Z,17.40
2022-09-12T18:04:56.382Z,17.30
2022-09-12T18:07:26.879Z,17.30
2022-09-12T18:10:01.255Z,17.20
2022-09-12T18:12:32.422Z,17.20
2022-09-12T18:15:01.262Z,17.10
2022-09-12T18:17:38.886Z,17.00
2022-09-12T18:20:06.942Z,17.00
2022-09-12T18:22:40.003Z,17.00
2022-09-12T18:25:11.591Z,17.00
2022-09-12T18:27:40.159Z,17.00
2022-09-12T18:30:21.968Z,16.90
2022-09-12T18:33:23.740Z,16.80
2022-09-12T18:35:56.056Z,16.70
2022-09-12T18:38:25.151Z,16.70
2022-09-12T18:41:02.617Z,16.70
2022-09-12T18:43:32.106Z,16.70
2022-09-12T18:46:11.895Z,16.70
2022-09-12T18:48:44.512Z,16.70
2022-09-12T18:51:20.855Z,16.60
2022-09-12T18:53:53.546Z,16.50
2022-09-12T18:56:35.180Z,16.40
2022-09-12T18:59:07.635Z,16.40
2022-09-12T19:01:41.572Z,16.30
2022-09-12T19:04:13.476Z,16.30
2022-09-12T19:06:43.590Z,16.30
2022-09-12T19:09:15.369Z,16.20
2022-09-12T19:11:49.110Z,16.10
2022-09-12T19:14:27.317Z,16.00
2022-09-12T19:16:55.683Z,15.80
2022-09-12T19:19:26.396Z,15.70
2022-09-12T19:21:58.363Z,15.80
2022-09-12T19:24:29.486Z,15.70
2022-09-12T19:27:00.430Z,15.70
2022-09-12T19:29:32.736Z,15.60
2022-09-12T19:32:02.982Z,15.60
2022-09-12T19:34:33.881Z,15.60
2022-09-12T19:37:02.049Z,15.60
2022-09-12T19:39:41.995Z,15.60
2022-09-12T19:42:13.215Z,15.50
2022-09-12T19:44:40.606Z,15.50
2022-09-12T19:47:21.028Z,15.40
2022-09-12T19:49:50.905Z,15.30
2022-09-12T19:52:22.501Z,15.20
2022-09-12T19:54:52.099Z,15.10
2022-09-12T19:57:21.129Z,15.10
2022-09-12T19:59:50.166Z,15.10
2022-09-12T20:02:21.763Z,15.10
2022-09-12T20:07:33.206Z,15.00
2022-09-12T20:12:46.248Z,14.80
2022-09-12T20:15:15.761Z,14.80
2022-09-12T20:17:46.806Z,14.70
2022-09-12T20:20:15.371Z,14.70
2022-09-12T20:22:52.033Z,14.70
2022-09-12T20:25:24.006Z,14.60
2022-09-12T20:27:58.101Z,14.50
2022-09-12T20:30:29.375Z,14.40
2022-09-12T20:33:00.675Z,14.40
2022-09-12T20:35:28.155Z,14.30
2022-09-12T20:37:58.999Z,14.30
2022-09-12T20:43:14.510Z,14.30
2022-09-12T20:45:43.040Z,14.20
2022-09-12T20:48:12.421Z,14.20
2022-09-12T20:50:44.011Z,14.20
2022-09-12T20:53:14.497Z,14.20
2022-09-12T20:55:53.772Z,14.20
2022-09-12T20:58:23.493Z,14.20
2022-09-12T21:00:54.493Z,14.20
2022-09-12T21:03:26.188Z,14.20
2022-09-12T21:05:55.568Z,14.20
2022-09-12T21:08:26.940Z,14.20
2022-09-12T21:10:57.633Z,14.10
2022-09-12T21:13:29.467Z,14.10
2022-09-12T21:16:11.438Z,14.00
2022-09-12T21:18:41.505Z,13.90
2022-09-12T21:21:13.702Z,13.80
2022-09-12T21:23:46.562Z,13.90
2022-09-12T21:26:17.313Z,14.00
2022-09-12T21:28:48.106Z,13.90
2022-09-12T21:31:17.306Z,13.80
2022-09-12T21:33:49.039Z,13.80
2022-09-12T21:36:17.321Z,13.80
2022-09-12T21:38:47.821Z,13.70
2022-09-12T21:41:16.897Z,13.70
2022-09-12T21:43:50.072Z,13.80
2022-09-12T21:46:20.089Z,13.70
2022-09-12T21:48:50.170Z,13.70
2022-09-12T21:51:23.584Z,13.70
2022-09-12T21:53:53.338Z,13.60
2022-09-12T21:56:30.722Z,13.60
2022-09-12T21:59:00.637Z,13.60
2022-09-12T22:01:29.321Z,13.50
2022-09-12T22:04:00.553Z,13.50
2022-09-12T22:06:29.245Z,13.60
2022-09-12T22:08:58.464Z,13.60
2022-09-12T22:11:29.187Z,13.60
2022-09-12T22:13:56.829Z,13.60
2022-09-12T22:16:26.736Z,13.60
2022-09-12T22:18:54.434Z,13.60
2022-09-12T22:21:26.473Z,13.60
2022-09-12T22:24:18.529Z,13.70
2022-09-12T22:26:47.130Z,13.70
2022-09-12T22:29:17.246Z,13.70
2022-09-12T22:31:47.115Z,13.60
2022-09-12T22:34:17.360Z,13.70
2022-09-12T22:36:47.943Z,13.70
2022-09-12T22:39:17.520Z,13.70
2022-09-12T22:41:47.674Z,13.80
2022-09-12T22:44:18.409Z,13.80
2022-09-12T22:46:48.032Z,13.80
2022-09-12T22:49:17.817Z,13.80
2022-09-12T22:51:49.038Z,13.80
2022-09-12T22:54:17.757Z,13.80
2022-09-12T22:56:48.813Z,13.90
2022-09-12T22:59:21.492Z,13.90
2022-09-12T23:01:52.791Z,13.90
2022-09-12T23:04:23.532Z,13.80
2022-09-12T23:06:53.954Z,13.90
2022-09-12T23:09:26.164Z,13.80
2022-09-12T23:11:59.157Z,13.70
2022-09-12T23:14:27.953Z,13.70
2022-09-12T23:16:58.791Z,13.70
2022-09-12T23:19:28.744Z,13.70
2022-09-12T23:21:58.698Z,13.70
2022-09-12T23:24:30.079Z,13.70
2022-09-12T23:27:01.721Z,13.70
2022-09-12T23:29:34.398Z,13.80
2022-09-12T23:32:09.259Z,13.70
2022-09-12T23:34:37.870Z,13.70
2022-09-12T23:37:07.314Z,13.60
2022-09-12T23:39:37.706Z,13.60
2022-09-12T23:42:08.793Z,13.60
2022-09-12T23:44:37.326Z,13.60
2022-09-12T23:47:07.200Z,13.60
2022-09-12T23:49:37.837Z,13.50
2022-09-12T23:52:08.573Z,13.50
2022-09-12T23:54:37.253Z,13.50
2022-09-12T23:57:07.761Z,13.50
2022-09-12T23:59:36.325Z,13.50
